createdAt,value
2018-06-21T00:00:37.671Z,1009.69
2018-06-21T00:01:37.599Z,1009.70
2018-06-21T00:02:37.524Z,1009.69
2018-06-21T00:03:37.440Z,1009.65
2018-06-21T00:04:37.365Z,1009.67
2018-06-21T00:05:37.284Z,1009.65
2018-06-21T00:06:37.222Z,1009.63
2018-06-21T00:07:37.129Z,1009.60
2018-06-21T00:08:37.052Z,1009.62
2018-06-21T00:09:36.980Z,1009.54
2018-06-21T00:10:36.904Z,1009.55
2018-06-21T00:11:36.824Z,1009.54
2018-06-21T00:12:36.737Z,1009.56
2018-06-21T00:13:36.666Z,1009.55
2018-06-21T00:14:36.592Z,1009.49
2018-06-21T00:15:36.500Z,1009.47
2018-06-21T00:16:36.426Z,1009.46
2018-06-21T00:17:36.349Z,1009.43
2018-06-21T00:18:36.339Z,1009.43
2018-06-21T00:19:36.191Z,1009.40
2018-06-21T00:20:36.115Z,1009.40
2018-06-21T00:21:36.038Z,1009.37
2018-06-21T00:22:35.963Z,1009.37
2018-06-21T00:23:35.892Z,1009.36
2018-06-21T00:24:35.805Z,1009.35
2018-06-21T00:25:35.729Z,1009.35
2018-06-21T00:26:35.655Z,1009.35
2018-06-21T00:27:35.575Z,1009.32
2018-06-21T00:28:35.486Z,1009.33
2018-06-21T00:29:35.429Z,1009.28
2018-06-21T00:30:35.341Z,1009.33
2018-06-21T00:31:35.262Z,1009.30
2018-06-21T00:32:35.175Z,1009.27
2018-06-21T00:33:35.103Z,1009.24
2018-06-21T00:34:35.028Z,1009.29
2018-06-21T00:35:34.960Z,1009.25
2018-06-21T00:36:34.869Z,1009.22
2018-06-21T00:37:34.787Z,1009.24
2018-06-21T00:38:34.715Z,1009.19
2018-06-21T00:39:34.642Z,1009.17
2018-06-21T00:40:34.556Z,1009.18
2018-06-21T00:41:34.483Z,1009.15
2018-06-21T00:42:34.411Z,1009.15
2018-06-21T00:43:34.329Z,1009.15
2018-06-21T00:44:34.243Z,1009.12
2018-06-21T00:45:34.170Z,1009.06
2018-06-21T00:46:34.094Z,1009.11
2018-06-21T00:47:34.016Z,1009.09
2018-06-21T00:48:33.929Z,1009.07
2018-06-21T00:49:33.853Z,1009.05
2018-06-21T00:50:33.780Z,1009.04
2018-06-21T00:51:33.707Z,1009.07
2018-06-21T00:52:33.621Z,1009.07
2018-06-21T00:53:33.544Z,1009.05
2018-06-21T00:54:33.468Z,1009.06
2018-06-21T00:55:33.411Z,1009.03
2018-06-21T00:56:33.309Z,1009.01
2018-06-21T00:57:33.232Z,1008.99
2018-06-21T00:58:33.157Z,1008.96
2018-06-21T00:59:33.079Z,1008.98
2018-06-21T01:00:33.007Z,1008.98
2018-06-21T01:01:32.921Z,1008.98
2018-06-21T01:02:32.847Z,1009.00
2018-06-21T01:03:32.769Z,1008.96
2018-06-21T01:04:32.682Z,1008.94
2018-06-21T01:05:32.604Z,1008.92
2018-06-21T01:06:32.530Z,1008.94
2018-06-21T01:07:32.459Z,1008.95
2018-06-21T01:08:32.370Z,1008.94
2018-06-21T01:09:32.293Z,1008.90
2018-06-21T01:10:32.219Z,1008.90
2018-06-21T01:11:32.148Z,1008.89
2018-06-21T01:12:32.061Z,1008.85
2018-06-21T01:13:31.984Z,1008.86
2018-06-21T01:14:31.909Z,1008.82
2018-06-21T01:15:31.819Z,1008.85
2018-06-21T01:16:31.742Z,1008.80
2018-06-21T01:17:31.674Z,1008.82
2018-06-21T01:18:31.597Z,1008.82
2018-06-21T01:19:31.506Z,1008.82
2018-06-21T01:20:31.432Z,1008.84
2018-06-21T01:21:31.359Z,1008.82
2018-06-21T01:22:31.286Z,1008.83
2018-06-21T01:23:31.200Z,1008.83
2018-06-21T01:24:31.124Z,1008.79
2018-06-21T01:25:31.056Z,1008.79
2018-06-21T01:26:30.972Z,1008.73
2018-06-21T01:27:30.886Z,1008.76
2018-06-21T01:28:30.811Z,1008.71
2018-06-21T01:29:30.738Z,1008.71
2018-06-21T01:30:30.664Z,1008.66
2018-06-21T01:31:30.571Z,1008.67
2018-06-21T01:32:30.496Z,1008.63
2018-06-21T01:33:30.427Z,1008.65
2018-06-21T01:34:30.350Z,1008.63
2018-06-21T01:35:30.262Z,1008.60
2018-06-21T01:36:30.184Z,1008.61
2018-06-21T01:37:30.108Z,1008.58
2018-06-21T01:38:30.022Z,1008.61
2018-06-21T01:39:29.965Z,1008.58
2018-06-21T01:40:29.873Z,1008.59
2018-06-21T01:41:29.797Z,1008.55
2018-06-21T01:42:29.711Z,1008.52
2018-06-21T01:43:29.640Z,1008.53
2018-06-21T01:44:29.565Z,1008.52
2018-06-21T01:45:29.487Z,1008.51
2018-06-21T01:46:29.400Z,1008.50
2018-06-21T01:47:29.321Z,1008.49
2018-06-21T01:48:29.246Z,1008.46
2018-06-21T01:49:29.175Z,1008.46
2018-06-21T01:50:29.089Z,1008.44
2018-06-21T01:51:29.010Z,1008.43
2018-06-21T01:52:28.938Z,1008.41
2018-06-21T01:53:28.849Z,1008.44
2018-06-21T01:54:28.834Z,1008.41
2018-06-21T01:55:28.703Z,1008.42
2018-06-21T01:56:28.628Z,1008.39
2018-06-21T01:57:28.546Z,1008.38
2018-06-21T01:58:28.461Z,1008.36
2018-06-21T01:59:28.390Z,1008.37
2018-06-21T02:00:28.303Z,1008.37
2018-06-21T02:01:28.229Z,1008.36
2018-06-21T02:02:28.153Z,1008.33
2018-06-21T02:03:28.075Z,1008.34
2018-06-21T02:04:27.988Z,1008.31
2018-06-21T02:05:27.916Z,1008.32
2018-06-21T02:06:27.841Z,1008.29
2018-06-21T02:07:27.767Z,1008.28
2018-06-21T02:08:27.679Z,1008.28
2018-06-21T02:09:27.602Z,1008.27
2018-06-21T02:10:27.543Z,1008.27
2018-06-21T02:11:27.437Z,1008.27
2018-06-21T02:12:27.365Z,1008.28
2018-06-21T02:13:27.293Z,1008.23
2018-06-21T02:14:27.219Z,1008.28
2018-06-21T02:15:27.128Z,1008.27
2018-06-21T02:16:27.051Z,1008.29
2018-06-21T02:17:26.975Z,1008.28
2018-06-21T02:18:26.900Z,1008.25
2018-06-21T02:19:26.817Z,1008.21
2018-06-21T02:20:26.743Z,1008.23
2018-06-21T02:21:26.665Z,1008.23
2018-06-21T02:22:26.576Z,1008.22
2018-06-21T02:23:26.504Z,1008.22
2018-06-21T02:24:26.430Z,1008.20
2018-06-21T02:25:26.359Z,1008.19
2018-06-21T02:26:26.270Z,1008.18
2018-06-21T02:27:26.190Z,1008.18
2018-06-21T02:28:26.115Z,1008.18
2018-06-21T02:29:26.031Z,1008.17
2018-06-21T02:30:25.954Z,1008.13
2018-06-21T02:31:25.876Z,1008.11
2018-06-21T02:32:25.801Z,1008.06
2018-06-21T02:33:25.716Z,1008.04
2018-06-21T02:34:25.741Z,1008.06
2018-06-21T02:35:25.572Z,1008.02
2018-06-21T02:36:25.498Z,1007.99
2018-06-21T02:37:25.405Z,1008.03
2018-06-21T02:38:25.331Z,1008.01
2018-06-21T02:39:25.270Z,1008.03
2018-06-21T02:40:25.172Z,1008.00
2018-06-21T02:41:25.095Z,1007.98
2018-06-21T02:42:25.032Z,1007.97
2018-06-21T02:43:24.940Z,1008.00
2018-06-21T02:44:24.860Z,1007.96
2018-06-21T02:45:24.787Z,1007.96
2018-06-21T02:46:24.708Z,1007.92
2018-06-21T02:47:24.619Z,1007.92
2018-06-21T02:48:24.543Z,1007.92
2018-06-21T02:49:24.466Z,1007.89
2018-06-21T02:50:24.397Z,1007.88
2018-06-21T02:51:24.322Z,1007.84
2018-06-21T02:52:24.233Z,1007.81
2018-06-21T02:53:24.154Z,1007.84
2018-06-21T02:54:24.079Z,1007.80
2018-06-21T02:55:23.996Z,1007.82
2018-06-21T02:56:23.922Z,1007.78
2018-06-21T02:57:23.852Z,1007.75
2018-06-21T02:58:23.761Z,1007.70
2018-06-21T02:59:23.684Z,1007.67
2018-06-21T03:00:23.611Z,1007.66
2018-06-21T03:01:23.533Z,1007.66
2018-06-21T03:02:23.447Z,1007.69
2018-06-21T03:03:23.367Z,1007.61
2018-06-21T03:04:23.303Z,1007.63
2018-06-21T03:05:23.208Z,1007.64
2018-06-21T03:06:23.145Z,1007.64
2018-06-21T03:07:23.061Z,1007.61
2018-06-21T03:08:22.987Z,1007.60
2018-06-21T03:09:22.905Z,1007.59
2018-06-21T03:10:22.821Z,1007.63
2018-06-21T03:11:22.748Z,1007.62
2018-06-21T03:12:22.670Z,1007.64
2018-06-21T03:13:22.587Z,1007.61
2018-06-21T03:14:22.517Z,1007.59
2018-06-21T03:15:22.435Z,1007.57
2018-06-21T03:16:22.346Z,1007.53
2018-06-21T03:17:22.276Z,1007.51
2018-06-21T03:18:22.199Z,1007.51
2018-06-21T03:19:22.107Z,1007.53
2018-06-21T03:20:22.032Z,1007.53
2018-06-21T03:21:21.959Z,1007.54
2018-06-21T03:22:21.884Z,1007.52
2018-06-21T03:23:21.801Z,1007.50
2018-06-21T03:24:21.733Z,1007.51
2018-06-21T03:25:21.649Z,1007.47
2018-06-21T03:26:21.561Z,1007.50
2018-06-21T03:27:21.502Z,1007.50
2018-06-21T03:28:21.414Z,1007.47
2018-06-21T03:29:21.337Z,1007.48
2018-06-21T03:30:21.251Z,1007.45
2018-06-21T03:31:21.172Z,1007.45
2018-06-21T03:32:21.096Z,1007.45
2018-06-21T03:33:21.015Z,1007.48
2018-06-21T03:34:20.940Z,1007.46
2018-06-21T03:35:20.869Z,1007.45
2018-06-21T03:36:20.785Z,1007.42
2018-06-21T03:37:20.697Z,1007.40
2018-06-21T03:38:20.622Z,1007.37
2018-06-21T03:39:20.552Z,1007.40
2018-06-21T03:40:20.463Z,1007.38
2018-06-21T03:41:20.384Z,1007.33
2018-06-21T03:42:20.309Z,1007.34
2018-06-21T03:43:20.242Z,1007.33
2018-06-21T03:44:20.152Z,1007.36
2018-06-21T03:45:20.079Z,1007.31
2018-06-21T03:46:20.005Z,1007.29
2018-06-21T03:47:19.925Z,1007.28
2018-06-21T03:48:19.836Z,1007.28
2018-06-21T03:49:19.764Z,1007.28
2018-06-21T03:50:19.689Z,1007.25
2018-06-21T03:51:19.598Z,1007.23
2018-06-21T03:52:19.534Z,1007.23
2018-06-21T03:53:19.454Z,1007.21
2018-06-21T03:54:19.362Z,1007.21
2018-06-21T03:55:19.292Z,1007.21
2018-06-21T03:56:19.219Z,1007.22
2018-06-21T03:57:19.138Z,1007.19
2018-06-21T03:58:19.051Z,1007.20
2018-06-21T03:59:18.985Z,1007.22
2018-06-21T04:00:18.905Z,1007.20
2018-06-21T04:01:18.818Z,1007.21
2018-06-21T04:02:18.741Z,1007.14
2018-06-21T04:03:18.662Z,1007.16
2018-06-21T04:04:18.588Z,1007.13
2018-06-21T04:05:18.520Z,1007.12
2018-06-21T04:06:18.432Z,1007.15
2018-06-21T04:07:18.352Z,1007.16
2018-06-21T04:08:18.319Z,1007.16
2018-06-21T04:09:18.187Z,1007.16
2018-06-21T04:10:18.126Z,1007.17
2018-06-21T04:11:18.042Z,1007.19
2018-06-21T04:12:17.955Z,1007.14
2018-06-21T04:13:17.891Z,1007.14
2018-06-21T04:14:17.805Z,1007.13
2018-06-21T04:15:17.727Z,1007.11
2018-06-21T04:16:17.641Z,1007.17
2018-06-21T04:17:17.570Z,1007.10
2018-06-21T04:18:17.490Z,1007.13
2018-06-21T04:19:17.410Z,1007.10
2018-06-21T04:20:17.334Z,1007.10
2018-06-21T04:21:17.252Z,1007.08
2018-06-21T04:22:17.180Z,1007.10
2018-06-21T04:23:17.093Z,1007.08
2018-06-21T04:24:17.032Z,1007.09
2018-06-21T04:25:16.945Z,1007.08
2018-06-21T04:26:16.870Z,1007.06
2018-06-21T04:27:16.780Z,1007.04
2018-06-21T04:28:16.704Z,1007.07
2018-06-21T04:29:16.634Z,1007.05
2018-06-21T04:30:16.558Z,1007.02
2018-06-21T04:31:16.467Z,1007.01
2018-06-21T04:32:16.399Z,1007.04
2018-06-21T04:33:16.315Z,1007.04
2018-06-21T04:34:16.240Z,1007.01
2018-06-21T04:35:16.185Z,1007.01
2018-06-21T04:36:16.083Z,1006.97
2018-06-21T04:37:16.010Z,1006.98
2018-06-21T04:38:15.931Z,1006.99
2018-06-21T04:39:15.860Z,1006.96
2018-06-21T04:40:15.773Z,1006.93
2018-06-21T04:41:15.695Z,1006.96
2018-06-21T04:42:15.620Z,1006.92
2018-06-21T04:43:15.540Z,1006.94
2018-06-21T04:44:15.466Z,1006.95
2018-06-21T04:45:15.396Z,1006.95
2018-06-21T04:46:15.309Z,1006.96
2018-06-21T04:47:15.230Z,1006.88
2018-06-21T04:48:15.158Z,1006.92
2018-06-21T04:49:15.083Z,1006.95
2018-06-21T04:50:15.007Z,1006.95
2018-06-21T04:51:14.925Z,1006.97
2018-06-21T04:52:14.848Z,1006.96
2018-06-21T04:53:14.766Z,1006.96
2018-06-21T04:54:14.692Z,1006.94
2018-06-21T04:55:14.622Z,1006.95
2018-06-21T04:56:14.550Z,1006.88
2018-06-21T04:57:14.474Z,1006.88
2018-06-21T04:58:14.411Z,1006.88
2018-06-21T04:59:14.320Z,1006.83
2018-06-21T05:00:14.245Z,1006.77
2018-06-21T05:01:14.175Z,1006.73
2018-06-21T05:02:14.102Z,1006.76
2018-06-21T05:03:14.020Z,1006.75
2018-06-21T05:04:13.945Z,1006.72
2018-06-21T05:05:13.868Z,1006.73
2018-06-21T05:06:13.795Z,1006.71
2018-06-21T05:07:13.712Z,1006.75
2018-06-21T05:08:13.637Z,1006.73
2018-06-21T05:09:13.570Z,1006.71
2018-06-21T05:10:13.485Z,1006.69
2018-06-21T05:11:13.415Z,1006.70
2018-06-21T05:12:13.339Z,1006.66
2018-06-21T05:13:13.262Z,1006.65
2018-06-21T05:14:13.186Z,1006.64
2018-06-21T05:15:13.108Z,1006.60
2018-06-21T05:16:13.034Z,1006.62
2018-06-21T05:17:12.965Z,1006.55
2018-06-21T05:18:12.913Z,1006.60
2018-06-21T05:19:12.814Z,1006.63
2018-06-21T05:20:12.736Z,1006.64
2018-06-21T05:21:12.660Z,1006.68
2018-06-21T05:22:12.584Z,1006.69
2018-06-21T05:23:12.514Z,1006.76
2018-06-21T05:24:12.438Z,1006.80
2018-06-21T05:25:12.440Z,1006.78
2018-06-21T05:26:12.287Z,1006.80
2018-06-21T05:27:12.216Z,1006.81
2018-06-21T05:28:12.141Z,1006.82
2018-06-21T05:29:12.064Z,1006.79
2018-06-21T05:30:11.989Z,1006.77
2018-06-21T05:31:11.909Z,1006.72
2018-06-21T05:32:11.979Z,1006.71
2018-06-21T05:33:11.752Z,1006.70
2018-06-21T05:34:11.689Z,1006.66
2018-06-21T05:35:11.597Z,1006.69
2018-06-21T05:36:11.522Z,1006.67
2018-06-21T05:37:11.450Z,1006.67
2018-06-21T05:38:11.392Z,1006.65
2018-06-21T05:39:11.304Z,1006.62
2018-06-21T05:40:11.229Z,1006.65
2018-06-21T05:41:11.148Z,1006.65
2018-06-21T05:42:11.086Z,1006.68
2018-06-21T05:43:11.002Z,1006.63
2018-06-21T05:44:10.930Z,1006.60
2018-06-21T05:45:10.855Z,1006.58
2018-06-21T05:46:10.794Z,1006.52
2018-06-21T05:47:10.700Z,1006.48
2018-06-21T05:48:10.626Z,1006.46
2018-06-21T05:49:10.558Z,1006.41
2018-06-21T05:50:10.543Z,1006.42
2018-06-21T05:51:10.401Z,1006.41
2018-06-21T05:52:10.326Z,1006.39
2018-06-21T05:53:10.249Z,1006.35
2018-06-21T05:54:10.176Z,1006.32
2018-06-21T05:55:10.092Z,1006.33
2018-06-21T05:56:10.024Z,1006.35
2018-06-21T05:57:09.940Z,1006.36
2018-06-21T05:58:09.864Z,1006.32
2018-06-21T05:59:09.795Z,1006.31
2018-06-21T06:00:09.718Z,1006.33
2018-06-21T06:01:09.642Z,1006.23
2018-06-21T06:02:09.568Z,1006.21
2018-06-21T06:03:09.490Z,1006.20
2018-06-21T06:04:09.414Z,1006.23
2018-06-21T06:05:09.343Z,1006.20
2018-06-21T06:06:09.269Z,1006.22
2018-06-21T06:07:09.190Z,1006.24
2018-06-21T06:08:09.178Z,1006.21
2018-06-21T06:09:09.041Z,1006.21
2018-06-21T06:10:09.030Z,1006.18
2018-06-21T06:11:08.896Z,1006.17
2018-06-21T06:12:08.821Z,1006.12
2018-06-21T06:13:08.740Z,1006.17
2018-06-21T06:14:08.690Z,1006.17
2018-06-21T06:15:08.595Z,1006.16
2018-06-21T06:16:08.527Z,1006.16
2018-06-21T06:17:08.446Z,1006.15
2018-06-21T06:18:08.372Z,1006.14
2018-06-21T06:19:08.293Z,1006.11
2018-06-21T06:20:08.248Z,1006.08
2018-06-21T06:21:08.141Z,1006.12
2018-06-21T06:22:08.066Z,1006.10
2018-06-21T06:23:07.995Z,1006.07
2018-06-21T06:24:07.920Z,1006.07
2018-06-21T06:25:07.848Z,1006.06
2018-06-21T06:26:07.773Z,1006.08
2018-06-21T06:27:07.694Z,1006.07
2018-06-21T06:28:07.619Z,1006.06
2018-06-21T06:29:07.546Z,1006.02
2018-06-21T06:30:07.471Z,1006.02
2018-06-21T06:31:07.392Z,1006.00
2018-06-21T06:32:07.317Z,1005.97
2018-06-21T06:33:07.245Z,1005.97
2018-06-21T06:34:07.181Z,1005.93
2018-06-21T06:35:07.111Z,1005.93
2018-06-21T06:36:07.038Z,1005.90
2018-06-21T06:37:06.960Z,1005.89
2018-06-21T06:38:06.884Z,1005.87
2018-06-21T06:39:06.823Z,1005.89
2018-06-21T06:40:06.736Z,1005.88
2018-06-21T06:41:06.660Z,1005.86
2018-06-21T06:42:06.585Z,1005.82
2018-06-21T06:43:06.506Z,1005.79
2018-06-21T06:44:06.432Z,1005.84
2018-06-21T06:45:06.366Z,1005.77
2018-06-21T06:46:06.302Z,1005.76
2018-06-21T06:47:06.208Z,1005.71
2018-06-21T06:48:06.133Z,1005.73
2018-06-21T06:49:06.059Z,1005.72
2018-06-21T06:50:05.995Z,1005.77
2018-06-21T06:51:05.912Z,1005.71
2018-06-21T06:52:05.848Z,1005.72
2018-06-21T06:53:05.771Z,1005.72
2018-06-21T06:54:05.696Z,1005.70
2018-06-21T06:55:05.624Z,1005.66
2018-06-21T06:56:05.550Z,1005.61
2018-06-21T06:57:05.477Z,1005.59
2018-06-21T06:58:05.402Z,1005.54
2018-06-21T06:59:05.322Z,1005.54
2018-06-21T07:00:05.251Z,1005.53
2018-06-21T07:01:05.188Z,1005.52
2018-06-21T07:02:05.100Z,1005.52
2018-06-21T07:03:05.022Z,1005.52
2018-06-21T07:04:04.946Z,1005.52
2018-06-21T07:05:04.885Z,1005.48
2018-06-21T07:06:04.823Z,1005.44
2018-06-21T07:07:04.740Z,1005.46
2018-06-21T07:08:04.729Z,1005.45
2018-06-21T07:09:04.585Z,1005.44
2018-06-21T07:10:04.511Z,1005.40
2018-06-21T07:11:04.440Z,1005.38
2018-06-21T07:12:04.366Z,1005.39
2018-06-21T07:13:04.288Z,1005.33
2018-06-21T07:14:04.278Z,1005.34
2018-06-21T07:15:04.136Z,1005.35
2018-06-21T07:16:04.072Z,1005.30
2018-06-21T07:17:04.007Z,1005.27
2018-06-21T07:18:03.928Z,1005.30
2018-06-21T07:19:03.851Z,1005.32
2018-06-21T07:20:03.775Z,1005.30
2018-06-21T07:21:03.702Z,1005.27
2018-06-21T07:22:03.623Z,1005.23
2018-06-21T07:23:03.554Z,1005.22
2018-06-21T07:24:03.489Z,1005.22
2018-06-21T07:25:03.416Z,1005.22
2018-06-21T07:26:03.340Z,1005.24
2018-06-21T07:27:03.322Z,1005.15
2018-06-21T07:28:03.191Z,1005.12
2018-06-21T07:29:03.117Z,1005.09
2018-06-21T07:30:03.042Z,1005.07
2018-06-21T07:31:02.975Z,1005.03
2018-06-21T07:32:02.903Z,1005.07
2018-06-21T07:33:02.859Z,1005.01
2018-06-21T07:34:02.756Z,1004.97
2018-06-21T07:35:02.677Z,1004.92
2018-06-21T07:36:02.614Z,1004.91
2018-06-21T07:37:02.536Z,1004.86
2018-06-21T07:38:02.463Z,1004.81
2018-06-21T07:39:02.485Z,1004.83
2018-06-21T07:40:02.317Z,1004.79
2018-06-21T07:41:02.250Z,1004.76
2018-06-21T07:42:02.175Z,1004.73
2018-06-21T07:43:02.105Z,1004.72
2018-06-21T07:44:02.042Z,1004.72
2018-06-21T07:45:01.982Z,1004.70
2018-06-21T07:46:01.982Z,1004.67
2018-06-21T07:47:01.815Z,1004.69
2018-06-21T07:48:01.753Z,1004.68
2018-06-21T07:49:01.680Z,1004.68
2018-06-21T07:50:01.608Z,1004.65
2018-06-21T07:51:01.538Z,1004.63
2018-06-21T07:52:01.463Z,1004.62
2018-06-21T07:53:01.403Z,1004.61
2018-06-21T07:54:01.329Z,1004.52
2018-06-21T07:55:01.270Z,1004.47
2018-06-21T07:56:01.208Z,1004.47
2018-06-21T07:57:01.116Z,1004.46
2018-06-21T07:58:01.055Z,1004.44
2018-06-21T07:59:00.995Z,1004.44
2018-06-21T08:00:00.933Z,1004.39
2018-06-21T08:01:00.843Z,1004.39
2018-06-21T08:02:00.772Z,1004.33
2018-06-21T08:03:00.702Z,1004.32
2018-06-21T08:04:00.627Z,1004.28
2018-06-21T08:05:00.572Z,1004.30
2018-06-21T08:06:00.496Z,1004.31
2018-06-21T08:07:00.430Z,1004.31
2018-06-21T08:08:00.355Z,1004.31
2018-06-21T08:09:00.291Z,1004.30
2018-06-21T08:10:00.215Z,1004.23
2018-06-21T08:11:00.159Z,1004.30
2018-06-21T08:12:00.088Z,1004.32
2018-06-21T08:13:00.025Z,1004.25
2018-06-21T08:13:59.941Z,1004.26
2018-06-21T08:14:59.883Z,1004.22
2018-06-21T08:15:59.808Z,1004.25
2018-06-21T08:16:59.747Z,1004.23
2018-06-21T08:17:59.672Z,1004.21
2018-06-21T08:18:59.607Z,1004.21
2018-06-21T08:19:59.532Z,1004.10
2018-06-21T08:20:59.470Z,1004.16
2018-06-21T08:21:59.395Z,1004.13
2018-06-21T08:22:59.318Z,1004.14
2018-06-21T08:23:59.254Z,1004.19
2018-06-21T08:24:59.182Z,1004.15
2018-06-21T08:25:59.119Z,1004.08
2018-06-21T08:26:59.051Z,1004.11
2018-06-21T08:27:58.986Z,1004.05
2018-06-21T08:28:58.912Z,1004.06
2018-06-21T08:29:58.848Z,1004.08
2018-06-21T08:30:58.770Z,1003.98
2018-06-21T08:31:58.711Z,1003.93
2018-06-21T08:32:58.631Z,1003.87
2018-06-21T08:33:58.568Z,1003.86
2018-06-21T08:34:58.499Z,1003.88
2018-06-21T08:35:58.436Z,1003.84
2018-06-21T08:36:58.363Z,1003.83
2018-06-21T08:37:58.295Z,1003.78
2018-06-21T08:38:58.311Z,1003.77
2018-06-21T08:39:58.150Z,1003.76
2018-06-21T08:40:58.087Z,1003.77
2018-06-21T08:41:58.017Z,1003.73
2018-06-21T08:42:57.944Z,1003.77
2018-06-21T08:43:57.870Z,1003.74
2018-06-21T08:44:57.818Z,1003.82
2018-06-21T08:45:57.750Z,1003.80
2018-06-21T08:46:57.670Z,1003.77
2018-06-21T08:47:57.597Z,1003.76
2018-06-21T08:48:57.535Z,1003.65
2018-06-21T08:49:57.461Z,1003.69
2018-06-21T08:50:57.401Z,1003.68
2018-06-21T08:51:57.386Z,1003.71
2018-06-21T08:52:57.258Z,1003.70
2018-06-21T08:53:57.183Z,1003.69
2018-06-21T08:54:57.124Z,1003.67
2018-06-21T08:55:57.062Z,1003.73
2018-06-21T08:56:56.992Z,1003.65
2018-06-21T08:57:56.915Z,1003.54
2018-06-21T08:58:56.849Z,1003.57
2018-06-21T08:59:56.776Z,1003.62
2018-06-21T09:00:56.715Z,1003.62
2018-06-21T09:01:56.641Z,1003.46
2018-06-21T09:02:56.573Z,1003.55
2018-06-21T09:03:56.498Z,1003.59
2018-06-21T09:04:56.434Z,1003.51
2018-06-21T09:05:56.360Z,1003.55
2018-06-21T09:06:56.304Z,1003.42
2018-06-21T09:07:56.239Z,1003.44
2018-06-21T09:08:56.162Z,1003.40
2018-06-21T09:09:56.100Z,1003.47
2018-06-21T09:10:56.029Z,1003.48
2018-06-21T09:11:55.966Z,1003.40
2018-06-21T09:12:55.891Z,1003.25
2018-06-21T09:13:55.826Z,1003.39
2018-06-21T09:14:55.760Z,1003.48
2018-06-21T09:15:55.686Z,1003.43
2018-06-21T09:16:55.629Z,1003.41
2018-06-21T09:17:55.567Z,1003.42
2018-06-21T09:18:55.486Z,1003.35
2018-06-21T09:19:55.423Z,1003.28
2018-06-21T09:20:55.371Z,1003.21
2018-06-21T09:21:55.288Z,1003.23
2018-06-21T09:22:55.229Z,1003.25
2018-06-21T09:23:55.168Z,1003.26
2018-06-21T09:24:55.087Z,1003.35
2018-06-21T09:25:55.024Z,1003.37
2018-06-21T09:26:54.966Z,1003.34
2018-06-21T09:27:54.891Z,1003.12
2018-06-21T09:28:54.830Z,1003.26
2018-06-21T09:29:54.755Z,1003.04
2018-06-21T09:30:54.697Z,1003.26
2018-06-21T09:31:54.627Z,1003.24
2018-06-21T09:32:54.553Z,1003.22
2018-06-21T09:33:54.492Z,1003.05
2018-06-21T09:34:54.428Z,1002.94
2018-06-21T09:35:54.351Z,1003.28
2018-06-21T09:36:54.291Z,1003.18
2018-06-21T09:37:54.227Z,1002.94
2018-06-21T09:38:54.157Z,1002.91
2018-06-21T09:39:54.095Z,1002.95
2018-06-21T09:40:54.026Z,1003.19
2018-06-21T09:41:54.001Z,1002.98
2018-06-21T09:42:53.894Z,1003.04
2018-06-21T09:44:03.821Z,1002.99
2018-06-21T09:44:53.770Z,1002.92
2018-06-21T09:45:53.695Z,1002.89
2018-06-21T09:46:53.644Z,1002.86
2018-06-21T09:47:53.556Z,1002.77
2018-06-21T09:48:53.496Z,1002.80
2018-06-21T09:49:53.433Z,1002.80
2018-06-21T09:50:53.355Z,1002.80
2018-06-21T09:51:53.293Z,1002.75
2018-06-21T09:52:53.227Z,1002.77
2018-06-21T09:53:53.152Z,1002.82
2018-06-21T09:54:53.094Z,1002.97
2018-06-21T09:55:53.031Z,1002.78
2018-06-21T09:56:52.967Z,1002.81
2018-06-21T09:57:52.893Z,1002.95
2018-06-21T09:58:52.833Z,1003.03
2018-06-21T09:59:52.772Z,1002.74
2018-06-21T10:00:52.696Z,1002.86
2018-06-21T10:01:52.621Z,1002.67
2018-06-21T10:02:52.541Z,1002.75
2018-06-21T10:03:52.481Z,1002.83
2018-06-21T10:04:52.421Z,1002.54
2018-06-21T10:05:52.346Z,1002.80
2018-06-21T10:06:52.281Z,1002.65
2018-06-21T10:07:52.217Z,1002.66
2018-06-21T10:08:52.150Z,1002.57
2018-06-21T10:09:52.081Z,1002.64
2018-06-21T10:10:52.023Z,1002.56
2018-06-21T10:11:51.953Z,1002.55
2018-06-21T10:12:51.868Z,1002.48
2018-06-21T10:13:51.807Z,1002.54
2018-06-21T10:14:51.736Z,1002.40
2018-06-21T10:15:51.715Z,1002.51
2018-06-21T10:16:51.612Z,1002.41
2018-06-21T10:17:51.537Z,1002.44
2018-06-21T10:18:51.470Z,1002.48
2018-06-21T10:19:51.429Z,1002.48
2018-06-21T10:20:51.336Z,1002.46
2018-06-21T10:21:51.264Z,1002.36
2018-06-21T10:22:51.196Z,1002.44
2018-06-21T10:23:51.134Z,1002.35
2018-06-21T10:24:51.058Z,1002.37
2018-06-21T10:25:50.996Z,1002.41
2018-06-21T10:26:50.923Z,1002.48
2018-06-21T10:27:50.860Z,1002.32
2018-06-21T10:28:50.797Z,1002.44
2018-06-21T10:29:50.722Z,1002.54
2018-06-21T10:30:50.654Z,1002.43
2018-06-21T10:31:50.588Z,1002.48
2018-06-21T10:32:50.523Z,1002.78
2018-06-21T10:33:50.462Z,1003.27
2018-06-21T10:34:50.375Z,1003.58
2018-06-21T10:35:50.321Z,1003.45
2018-06-21T10:36:50.232Z,1003.48
2018-06-21T10:37:50.170Z,1003.48
2018-06-21T10:38:50.100Z,1003.49
2018-06-21T10:39:50.024Z,1003.47
2018-06-21T10:40:49.964Z,1003.51
2018-06-21T10:41:49.889Z,1003.55
2018-06-21T10:42:49.811Z,1003.76
2018-06-21T10:43:49.749Z,1003.73
2018-06-21T10:44:49.676Z,1003.80
2018-06-21T10:45:49.601Z,1003.77
2018-06-21T10:46:49.533Z,1003.79
2018-06-21T10:47:49.459Z,1003.94
2018-06-21T10:48:49.385Z,1004.07
2018-06-21T10:49:49.315Z,1004.22
2018-06-21T10:50:49.253Z,1004.52
2018-06-21T10:51:49.166Z,1004.59
2018-06-21T10:52:49.099Z,1004.55
2018-06-21T10:53:49.024Z,1004.37
2018-06-21T10:54:48.953Z,1004.51
2018-06-21T10:55:48.879Z,1004.52
2018-06-21T10:56:48.802Z,1004.59
2018-06-21T10:57:48.729Z,1004.80
2018-06-21T10:58:48.647Z,1004.82
2018-06-21T10:59:48.573Z,1004.90
2018-06-21T11:00:48.503Z,1004.93
2018-06-21T11:01:48.429Z,1004.85
2018-06-21T11:02:48.353Z,1004.98
2018-06-21T11:03:48.279Z,1004.90
2018-06-21T11:04:48.198Z,1004.77
2018-06-21T11:05:48.111Z,1004.84
2018-06-21T11:06:48.040Z,1004.96
2018-06-21T11:07:47.964Z,1004.86
2018-06-21T11:08:47.887Z,1004.97
2018-06-21T11:09:47.810Z,1005.01
2018-06-21T11:10:47.729Z,1005.13
2018-06-21T11:11:47.654Z,1005.10
2018-06-21T11:12:47.579Z,1005.23
2018-06-21T11:13:47.505Z,1005.32
2018-06-21T11:14:47.441Z,1005.30
2018-06-21T11:15:47.352Z,1005.28
2018-06-21T11:16:47.289Z,1005.33
2018-06-21T11:17:47.205Z,1005.29
2018-06-21T11:18:47.111Z,1005.28
2018-06-21T11:19:47.036Z,1005.26
2018-06-21T11:20:46.964Z,1005.33
2018-06-21T11:21:46.889Z,1005.40
2018-06-21T11:22:46.807Z,1005.37
2018-06-21T11:23:46.731Z,1005.51
2018-06-21T11:24:46.653Z,1005.46
2018-06-21T11:25:46.578Z,1005.44
2018-06-21T11:26:46.506Z,1005.50
2018-06-21T11:27:46.487Z,1005.59
2018-06-21T11:28:46.354Z,1005.49
2018-06-21T11:29:46.267Z,1005.55
2018-06-21T11:30:46.187Z,1005.46
2018-06-21T11:31:46.127Z,1005.54
2018-06-21T11:32:46.044Z,1005.46
2018-06-21T11:33:45.969Z,1005.55
2018-06-21T11:34:45.879Z,1005.51
2018-06-21T11:35:45.804Z,1005.51
2018-06-21T11:36:45.727Z,1005.62
2018-06-21T11:37:45.651Z,1005.68
2018-06-21T11:38:45.592Z,1005.60
2018-06-21T11:39:45.507Z,1005.62
2018-06-21T11:40:45.429Z,1005.61
2018-06-21T11:41:45.355Z,1005.46
2018-06-21T11:42:45.284Z,1005.53
2018-06-21T11:43:45.197Z,1005.77
2018-06-21T11:44:45.118Z,1005.80
2018-06-21T11:45:45.044Z,1005.90
2018-06-21T11:46:45.052Z,1005.77
2018-06-21T11:47:44.890Z,1005.87
2018-06-21T11:48:44.821Z,1005.76
2018-06-21T11:49:44.752Z,1005.84
2018-06-21T11:50:44.669Z,1005.83
2018-06-21T11:51:44.606Z,1005.94
2018-06-21T11:52:44.529Z,1006.02
2018-06-21T11:53:44.454Z,1006.05
2018-06-21T11:54:44.383Z,1006.01
2018-06-21T11:55:44.308Z,1006.06
2018-06-21T11:56:44.229Z,1006.14
2018-06-21T11:57:44.154Z,1006.16
2018-06-21T11:58:44.084Z,1006.31
2018-06-21T11:59:44.009Z,1006.42
2018-06-21T12:00:43.937Z,1006.49
2018-06-21T12:01:43.891Z,1006.55
2018-06-21T12:02:43.781Z,1006.59
2018-06-21T12:03:43.707Z,1006.65
2018-06-21T12:04:43.634Z,1006.49